createdAt,value
2022-12-13T00:04:27.064Z,100892.66
2022-12-13T00:09:29.404Z,100902.97
2022-12-13T00:14:32.911Z,100896.13
2022-12-13T00:19:34.983Z,100896.69
2022-12-13T00:24:41.415Z,100887.94
2022-12-13T00:29:48.552Z,100881.63
2022-12-13T00:34:50.460Z,100873.13
2022-12-13T00:39:52.248Z,100872.97
2022-12-13T00:44:55.682Z,100870.28
2022-12-13T00:49:58.759Z,100867.69
2022-12-13T00:55:00.838Z,100871.88
2022-12-13T01:00:05.885Z,100861.47
2022-12-13T01:05:08.907Z,100853.09
2022-12-13T01:10:12.506Z,100867.69
2022-12-13T01:15:16.288Z,100868.31
2022-12-13T01:20:18.804Z,100869.13
2022-12-13T01:25:21.583Z,100871.50
2022-12-13T01:30:25.875Z,100877.19
2022-12-13T01:35:27.915Z,100867.81
2022-12-13T01:40:29.594Z,100852.97
2022-12-13T01:45:34.038Z,100852.06
2022-12-13T01:50:39.457Z,100848.53
2022-12-13T01:55:45.438Z,100846.13
2022-12-13T02:00:49.819Z,100850.38
2022-12-13T02:06:00.367Z,100860.66
2022-12-13T02:11:03.595Z,100856.09
2022-12-13T02:16:12.932Z,100844.84
2022-12-13T02:21:34.876Z,100846.31
2022-12-13T02:27:00.782Z,100852.47
2022-12-13T02:32:13.255Z,100845.47
2022-12-13T02:37:22.952Z,100854.13
2022-12-13T02:42:29.973Z,100852.47
2022-12-13T02:47:35.938Z,100845.69
2022-12-13T02:52:40.613Z,100835.94
2022-12-13T02:57:44.696Z,100845.47
2022-12-13T03:03:02.292Z,100846.63
2022-12-13T03:08:19.370Z,100836.31
2022-12-13T03:13:29.163Z,100828.66
2022-12-13T03:18:34.542Z,100831.91
2022-12-13T03:23:37.507Z,100837.75
2022-12-13T03:28:40.685Z,100823.56
2022-12-13T03:33:44.524Z,100818.50
2022-12-13T03:38:48.040Z,100804.66
2022-12-13T03:43:50.588Z,100810.63
2022-12-13T03:48:54.008Z,100810.63
2022-12-13T03:53:58.077Z,100804.53
2022-12-13T03:59:00.174Z,100810.81
2022-12-13T04:04:03.682Z,100809.16
2022-12-13T04:09:05.960Z,100797.63
2022-12-13T04:14:07.838Z,100807.25
2022-12-13T04:19:11.364Z,100804.50
2022-12-13T04:24:13.351Z,100805.66
2022-12-13T04:29:15.584Z,100805.59
2022-12-13T04:34:19.192Z,100808.97
2022-12-13T04:39:22.607Z,100804.66
2022-12-13T04:44:27.619Z,100807.19
2022-12-13T04:49:33.755Z,100802.63
2022-12-13T04:54:37.111Z,100804.53
2022-12-13T04:59:39.785Z,100809.47
2022-12-13T05:04:44.632Z,100805.94
2022-12-13T05:09:46.802Z,100810.34
2022-12-13T05:14:49.049Z,100811.34
2022-12-13T05:19:52.587Z,100820.72
2022-12-13T05:24:54.747Z,100809.09
2022-12-13T05:30:03.051Z,100814.31
2022-12-13T05:35:08.378Z,100815.25
2022-12-13T05:40:10.625Z,100801.19
2022-12-13T05:45:13.161Z,100805.44
2022-12-13T05:50:17.865Z,100804.69
2022-12-13T05:55:20.430Z,100804.69
2022-12-13T06:00:28.300Z,100810.00
2022-12-13T06:05:34.221Z,100803.81
2022-12-13T06:10:36.768Z,100811.31
2022-12-13T06:15:44.477Z,100806.19
2022-12-13T06:20:56.288Z,100810.38
2022-12-13T06:25:58.706Z,100814.88
2022-12-13T06:31:01.495Z,100809.56
2022-12-13T06:36:05.409Z,100813.69
2022-12-13T06:41:10.054Z,100810.94
2022-12-13T06:46:13.036Z,100821.53
2022-12-13T06:51:22.556Z,100823.94
2022-12-13T06:56:25.270Z,100831.72
2022-12-13T07:01:27.533Z,100825.56
2022-12-13T07:06:41.144Z,100836.66
2022-12-13T07:11:47.081Z,100834.59
2022-12-13T07:17:01.163Z,100846.03
2022-12-13T07:22:06.993Z,100841.56
2022-12-13T07:27:09.094Z,100853.59
2022-12-13T07:32:12.167Z,100850.31
2022-12-13T07:37:30.113Z,100852.47
2022-12-13T07:42:33.088Z,100856.53
2022-12-13T07:47:35.394Z,100853.84
2022-12-13T07:52:39.084Z,100865.59
2022-12-13T07:57:40.868Z,100867.22
2022-12-13T08:02:43.023Z,100868.78
2022-12-13T08:07:46.400Z,100877.06
2022-12-13T08:12:48.587Z,100868.25
2022-12-13T08:17:50.992Z,100874.38
2022-12-13T08:23:01.822Z,100869.03
2022-12-13T08:28:05.203Z,100872.88
2022-12-13T08:33:07.721Z,100873.78
2022-12-13T08:38:11.696Z,100882.16
2022-12-13T08:43:13.914Z,100886.59
2022-12-13T08:48:16.041Z,100889.00
2022-12-13T08:53:28.215Z,100898.25
2022-12-13T08:58:32.366Z,100897.75
2022-12-13T09:03:34.996Z,100896.97
2022-12-13T09:08:39.403Z,100890.78
2022-12-13T09:13:43.797Z,100894.16
2022-12-13T09:18:55.191Z,100892.41
2022-12-13T09:24:01.350Z,100898.44
2022-12-13T09:29:11.214Z,100908.34
2022-12-13T09:34:14.010Z,100904.72
2022-12-13T09:39:17.889Z,100906.09
2022-12-13T09:44:32.584Z,100902.06
2022-12-13T09:49:52.343Z,100898.63
2022-12-13T09:54:59.275Z,100895.72
2022-12-13T10:00:06.318Z,100895.41
2022-12-13T10:05:22.296Z,100891.13
2022-12-13T10:10:27.762Z,100893.66
2022-12-13T10:15:33.482Z,100888.31
2022-12-13T10:20:36.477Z,100882.63
2022-12-13T10:25:51.068Z,100877.13
2022-12-13T10:30:54.192Z,100878.38
2022-12-13T10:36:05.973Z,100868.91
2022-12-13T10:41:31.429Z,100871.22
2022-12-13T10:46:38.719Z,100860.22
2022-12-13T10:51:41.116Z,100857.72
2022-12-13T10:56:47.252Z,100855.94
2022-12-13T11:01:49.040Z,100855.56
2022-12-13T11:06:54.147Z,100851.50
2022-12-13T11:12:01.115Z,100853.91
2022-12-13T11:17:09.493Z,100850.34
2022-12-13T11:22:21.125Z,100847.53
2022-12-13T11:27:44.169Z,100841.06
2022-12-13T11:32:59.892Z,100841.84
2022-12-13T11:38:11.389Z,100847.06
2022-12-13T11:43:26.497Z,100829.75
2022-12-13T11:48:41.122Z,100849.59
2022-12-13T11:53:52.820Z,100843.97
2022-12-13T11:59:11.311Z,100835.50
2022-12-13T12:04:29.972Z,100843.31
2022-12-13T12:09:35.058Z,100851.66
2022-12-13T12:14:43.498Z,100836.69
2022-12-13T12:19:51.303Z,100844.88
2022-12-13T12:25:03.505Z,100847.13
2022-12-13T12:30:23.798Z,100846.63
2022-12-13T12:35:46.383Z,100842.41
2022-12-13T12:41:17.507Z,100840.34
2022-12-13T12:47:09.150Z,100844.72
2022-12-13T12:52:14.486Z,100843.47
2022-12-13T12:57:24.786Z,100842.66
2022-12-13T13:02:36.811Z,100848.00
2022-12-13T13:07:43.560Z,100845.56
2022-12-13T13:13:11.473Z,100843.03
2022-12-13T13:18:49.194Z,100844.19
2022-12-13T13:24:06.557Z,100839.75
2022-12-13T13:29:37.507Z,100840.34
2022-12-13T13:34:42.932Z,100833.00
2022-12-13T13:39:59.681Z,100834.50
2022-12-13T13:45:20.921Z,100837.88
2022-12-13T13:50:53.298Z,100839.84
2022-12-13T13:56:02.000Z,100838.00
2022-12-13T14:01:48.871Z,100828.00
2022-12-13T14:07:26.445Z,100834.03
2022-12-13T14:13:14.505Z,100834.81
2022-12-13T14:18:51.779Z,100826.81
2022-12-13T14:24:12.124Z,100831.47
2022-12-13T14:29:16.895Z,100837.75
2022-12-13T14:34:22.808Z,100836.91
2022-12-13T14:39:26.640Z,100838.56
2022-12-13T14:44:30.209Z,100839.16
2022-12-13T14:49:35.260Z,100842.41
2022-12-13T14:54:45.593Z,100835.38
2022-12-13T14:59:50.603Z,100834.59
2022-12-13T15:04:53.992Z,100832.53
2022-12-13T15:10:00.667Z,100837.63
2022-12-13T15:15:06.042Z,100838.00
2022-12-13T15:20:23.362Z,100837.75
2022-12-13T15:25:27.784Z,100842.16
2022-12-13T15:30:34.022Z,100848.34
2022-12-13T15:35:36.832Z,100846.25
2022-12-13T15:40:44.045Z,100851.13
2022-12-13T15:45:48.001Z,100851.03
2022-12-13T15:50:50.355Z,100850.00
2022-12-13T15:55:53.924Z,100848.28
2022-12-13T16:00:56.148Z,100833.19
2022-12-13T16:05:58.314Z,100844.56
2022-12-13T16:11:02.307Z,100847.56
2022-12-13T16:16:26.675Z,100841.78
2022-12-13T16:21:29.979Z,100837.66
2022-12-13T16:26:34.634Z,100839.50
2022-12-13T16:31:37.220Z,100837.72
2022-12-13T16:36:40.115Z,100829.31
2022-12-13T16:41:47.009Z,100832.44
2022-12-13T16:47:11.503Z,100830.81
2022-12-13T16:52:11.433Z,100837.63
2022-12-13T16:57:14.606Z,100835.19
2022-12-13T17:02:17.758Z,100833.47
2022-12-13T17:07:19.737Z,100833.09
2022-12-13T17:12:24.574Z,100832.88
2022-12-13T17:17:26.698Z,100835.16
2022-12-13T17:22:28.503Z,100832.47
2022-12-13T17:27:31.828Z,100829.81
2022-12-13T17:32:33.881Z,100830.47
2022-12-13T17:37:35.943Z,100827.78
2022-12-13T17:42:39.044Z,100833.13
2022-12-13T17:47:40.794Z,100833.03
2022-12-13T17:52:42.648Z,100828.50
2022-12-13T17:57:46.201Z,100824.38
2022-12-13T18:02:55.119Z,100814.13
2022-12-13T18:07:58.005Z,100810.72
2022-12-13T18:13:01.187Z,100812.34
2022-12-13T18:18:11.376Z,100808.22
2022-12-13T18:23:14.679Z,100808.63
2022-12-13T18:28:18.215Z,100806.03
2022-12-13T18:33:20.892Z,100807.31
2022-12-13T18:38:23.391Z,100803.44
2022-12-13T18:43:27.088Z,100810.78
2022-12-13T18:48:29.380Z,100811.66
2022-12-13T18:53:32.288Z,100820.69
2022-12-13T18:58:36.226Z,100815.03
2022-12-13T19:03:39.109Z,100816.81
2022-12-13T19:08:40.925Z,100823.41
2022-12-13T19:13:45.081Z,100814.41
2022-12-13T19:18:47.835Z,100814.06
2022-12-13T19:23:56.923Z,100819.69
2022-12-13T19:29:02.079Z,100822.81
2022-12-13T19:34:04.437Z,100822.31
2022-12-13T19:39:06.675Z,100819.44
2022-12-13T19:44:11.353Z,100811.47
2022-12-13T19:49:13.896Z,100817.34
2022-12-13T19:54:16.165Z,100813.69
2022-12-13T19:59:19.959Z,100815.91
2022-12-13T20:04:23.454Z,100819.47
2022-12-13T20:09:26.006Z,100818.34
2022-12-13T20:14:30.018Z,100817.38
2022-12-13T20:19:32.257Z,100812.00
2022-12-13T20:24:34.689Z,100804.16
2022-12-13T20:29:38.483Z,100793.16
2022-12-13T20:34:40.891Z,100797.16
2022-12-13T20:39:43.193Z,100804.84
2022-12-13T20:44:46.525Z,100802.09
2022-12-13T20:49:48.942Z,100800.75
2022-12-13T20:54:51.408Z,100787.63
2022-12-13T20:59:54.671Z,100798.94
2022-12-13T21:04:57.878Z,100790.50
2022-12-13T21:10:03.689Z,100781.78
2022-12-13T21:15:08.415Z,100766.69
2022-12-13T21:20:10.440Z,100762.03
2022-12-13T21:25:12.464Z,100764.88
2022-12-13T21:30:15.680Z,100761.38
2022-12-13T21:35:17.696Z,100761.78
2022-12-13T21:40:19.882Z,100756.63
2022-12-13T21:45:23.699Z,100747.22
2022-12-13T21:50:25.532Z,100754.00
2022-12-13T21:55:38.933Z,100747.31
2022-12-13T22:00:43.111Z,100739.22
2022-12-13T22:05:45.284Z,100738.78
2022-12-13T22:10:46.993Z,100739.50
2022-12-13T22:15:51.149Z,100730.38
2022-12-13T22:20:56.475Z,100725.72
2022-12-13T22:25:58.577Z,100708.31
2022-12-13T22:31:02.280Z,100706.03
2022-12-13T22:36:04.734Z,100719.50
2022-12-13T22:41:06.978Z,100704.38
2022-12-13T22:46:12.847Z,100698.81
2022-12-13T22:51:17.081Z,100688.94
2022-12-13T22:56:21.317Z,100687.66
2022-12-13T23:01:28.900Z,100677.84
2022-12-13T23:06:34.137Z,100680.03
2022-12-13T23:11:36.532Z,100680.44
2022-12-13T23:16:40.634Z,100677.97
2022-12-13T23:21:43.306Z,100672.81
2022-12-13T23:26:50.730Z,100673.09
2022-12-13T23:31:54.252Z,100670.72
2022-12-13T23:36:56.548Z,100662.09
2022-12-13T23:41:58.618Z,100660.13
2022-12-13T23:47:02.080Z,100648.25
2022-12-13T23:52:04.384Z,100644.78
2022-12-13T23:57:06.380Z,100640.75
